sensor_id;sensor_type;location;lat;lon;timestamp;P1;durP1;ratioP1;P2;durP2;ratioP2
17253;SDS011;32542;52.832;13.816;2022-09-23T00:00:18;5.57;;;3.88;;
17253;SDS011;32542;52.832;13.816;2022-09-23T00:03:20;6.13;;;3.97;;
17253;SDS011;32542;52.832;13.816;2022-09-23T00:06:25;6.20;;;3.78;;
17253;SDS011;32542;52.832;13.816;2022-09-23T00:09:29;5.07;;;3.20;;
17253;SDS011;32542;52.832;13.816;2022-09-23T00:12:32;4.68;;;3.03;;
17253;SDS011;32542;52.832;13.816;2022-09-23T00:15:38;3.95;;;2.47;;
17253;SDS011;32542;52.832;13.816;2022-09-23T00:18:41;4.95;;;2.65;;
17253;SDS011;32542;52.832;13.816;2022-09-23T00:21:45;4.35;;;2.33;;
17253;SDS011;32542;52.832;13.816;2022-09-23T00:24:48;3.00;;;2.22;;
17253;SDS011;32542;52.832;13.816;2022-09-23T00:27:51;4.13;;;3.03;;
17253;SDS011;32542;52.832;13.816;2022-09-23T00:30:54;3.78;;;2.88;;
17253;SDS011;32542;52.832;13.816;2022-09-23T00:33:58;4.57;;;2.80;;
17253;SDS011;32542;52.832;13.816;2022-09-23T00:37:03;8.35;;;4.60;;
17253;SDS011;32542;52.832;13.816;2022-09-23T00:40:06;7.05;;;5.03;;
17253;SDS011;32542;52.832;13.816;2022-09-23T00:43:13;6.28;;;4.50;;
17253;SDS011;32542;52.832;13.816;2022-09-23T00:46:16;6.75;;;4.13;;
17253;SDS011;32542;52.832;13.816;2022-09-23T00:49:22;5.95;;;3.95;;
17253;SDS011;32542;52.832;13.816;2022-09-23T00:52:30;7.68;;;4.82;;
17253;SDS011;32542;52.832;13.816;2022-09-23T00:55:35;4.88;;;3.45;;
17253;SDS011;32542;52.832;13.816;2022-09-23T00:58:42;5.60;;;3.40;;
17253;SDS011;32542;52.832;13.816;2022-09-23T01:01:48;5.63;;;3.20;;
17253;SDS011;32542;52.832;13.816;2022-09-23T01:04:54;3.88;;;2.88;;
17253;SDS011;32542;52.832;13.816;2022-09-23T01:07:59;5.82;;;3.38;;
17253;SDS011;32542;52.832;13.816;2022-09-23T01:11:06;4.05;;;3.17;;
17253;SDS011;32542;52.832;13.816;2022-09-23T01:14:22;4.25;;;3.50;;
17253;SDS011;32542;52.832;13.816;2022-09-23T01:17:34;5.90;;;4.47;;
17253;SDS011;32542;52.832;13.816;2022-09-23T01:21:02;7.20;;;5.00;;
17253;SDS011;32542;52.832;13.816;2022-09-23T01:24:39;5.18;;;3.60;;
17253;SDS011;32542;52.832;13.816;2022-09-23T01:27:56;6.10;;;4.45;;
17253;SDS011;32542;52.832;13.816;2022-09-23T01:31:15;6.55;;;4.60;;
17253;SDS011;32542;52.832;13.816;2022-09-23T01:34:25;4.88;;;3.67;;
17253;SDS011;32542;52.832;13.816;2022-09-23T01:37:37;4.60;;;3.13;;
17253;SDS011;32542;52.832;13.816;2022-09-23T01:40:47;5.78;;;3.10;;
17253;SDS011;32542;52.832;13.816;2022-09-23T01:43:56;4.55;;;3.30;;
17253;SDS011;32542;52.832;13.816;2022-09-23T01:47:05;4.32;;;3.22;;
17253;SDS011;32542;52.832;13.816;2022-09-23T01:50:13;4.20;;;3.17;;
17253;SDS011;32542;52.832;13.816;2022-09-23T01:53:40;5.50;;;3.28;;
17253;SDS011;32542;52.832;13.816;2022-09-23T01:56:48;5.03;;;3.47;;
17253;SDS011;32542;52.832;13.816;2022-09-23T01:59:57;6.05;;;3.75;;
17253;SDS011;32542;52.832;13.816;2022-09-23T02:03:14;7.35;;;4.20;;
17253;SDS011;32542;52.832;13.816;2022-09-23T02:06:21;6.40;;;4.90;;
17253;SDS011;32542;52.832;13.816;2022-09-23T02:09:30;5.05;;;3.67;;
17253;SDS011;32542;52.832;13.816;2022-09-23T02:12:37;6.18;;;4.68;;
17253;SDS011;32542;52.832;13.816;2022-09-23T02:15:43;7.97;;;4.93;;
17253;SDS011;32542;52.832;13.816;2022-09-23T02:18:52;6.90;;;4.82;;
17253;SDS011;32542;52.832;13.816;2022-09-23T02:21:59;5.68;;;4.00;;
17253;SDS011;32542;52.832;13.816;2022-09-23T02:25:07;6.13;;;3.83;;
17253;SDS011;32542;52.832;13.816;2022-09-23T02:28:13;4.95;;;3.53;;
17253;SDS011;32542;52.832;13.816;2022-09-23T02:31:21;4.72;;;3.30;;
17253;SDS011;32542;52.832;13.816;2022-09-23T02:34:35;5.13;;;3.70;;
17253;SDS011;32542;52.832;13.816;2022-09-23T02:37:45;5.03;;;3.70;;
17253;SDS011;32542;52.832;13.816;2022-09-23T02:40:56;5.32;;;3.80;;
17253;SDS011;32542;52.832;13.816;2022-09-23T02:44:06;7.55;;;5.22;;
17253;SDS011;32542;52.832;13.816;2022-09-23T02:47:11;6.68;;;5.05;;
17253;SDS011;32542;52.832;13.816;2022-09-23T02:50:16;7.20;;;5.25;;
17253;SDS011;32542;52.832;13.816;2022-09-23T02:53:21;6.13;;;4.50;;
17253;SDS011;32542;52.832;13.816;2022-09-23T02:56:24;5.93;;;4.38;;
17253;SDS011;32542;52.832;13.816;2022-09-23T02:59:27;6.07;;;4.50;;
17253;SDS011;32542;52.832;13.816;2022-09-23T03:02:41;5.40;;;3.97;;
17253;SDS011;32542;52.832;13.816;2022-09-23T03:05:59;5.35;;;3.63;;
17253;SDS011;32542;52.832;13.816;2022-09-23T03:09:09;5.65;;;4.13;;
17253;SDS011;32542;52.832;13.816;2022-09-23T03:12:24;5.05;;;3.75;;
17253;SDS011;32542;52.832;13.816;2022-09-23T03:15:37;5.50;;;3.83;;
17253;SDS011;32542;52.832;13.816;2022-09-23T03:18:52;4.80;;;3.70;;
17253;SDS011;32542;52.832;13.816;2022-09-23T03:22:03;4.47;;;3.50;;
17253;SDS011;32542;52.832;13.816;2022-09-23T03:25:10;4.43;;;3.53;;
17253;SDS011;32542;52.832;13.816;2022-09-23T03:28:16;6.63;;;5.00;;
17253;SDS011;32542;52.832;13.816;2022-09-23T03:31:20;6.70;;;4.50;;
17253;SDS011;32542;52.832;13.816;2022-09-23T03:34:24;6.13;;;4.68;;
17253;SDS011;32542;52.832;13.816;2022-09-23T03:37:31;7.53;;;5.00;;
17253;SDS011;32542;52.832;13.816;2022-09-23T03:40:37;5.90;;;4.28;;
17253;SDS011;32542;52.832;13.816;2022-09-23T03:43:43;6.47;;;4.88;;
17253;SDS011;32542;52.832;13.816;2022-09-23T03:46:48;5.40;;;4.13;;
17253;SDS011;32542;52.832;13.816;2022-09-23T03:49:51;3.88;;;3.17;;
17253;SDS011;32542;52.832;13.816;2022-09-23T03:52:55;4.63;;;3.60;;
17253;SDS011;32542;52.832;13.816;2022-09-23T03:55:58;6.60;;;3.55;;
17253;SDS011;32542;52.832;13.816;2022-09-23T03:59:01;6.18;;;4.05;;
17253;SDS011;32542;52.832;13.816;2022-09-23T04:02:04;4.60;;;3.60;;
17253;SDS011;32542;52.832;13.816;2022-09-23T04:05:08;4.68;;;3.47;;
17253;SDS011;32542;52.832;13.816;2022-09-23T04:08:14;4.88;;;3.63;;
17253;SDS011;32542;52.832;13.816;2022-09-23T04:11:16;4.88;;;3.55;;
17253;SDS011;32542;52.832;13.816;2022-09-23T04:14:20;6.50;;;4.90;;
17253;SDS011;32542;52.832;13.816;2022-09-23T04:17:24;6.10;;;4.45;;
17253;SDS011;32542;52.832;13.816;2022-09-23T04:20:26;6.75;;;4.75;;
17253;SDS011;32542;52.832;13.816;2022-09-23T04:23:31;4.90;;;4.10;;
17253;SDS011;32542;52.832;13.816;2022-09-23T04:26:34;5.07;;;3.72;;
17253;SDS011;32542;52.832;13.816;2022-09-23T04:29:38;4.45;;;3.35;;
17253;SDS011;32542;52.832;13.816;2022-09-23T04:32:41;6.00;;;4.28;;
17253;SDS011;32542;52.832;13.816;2022-09-23T04:35:48;4.68;;;3.53;;
17253;SDS011;32542;52.832;13.816;2022-09-23T04:38:53;5.60;;;3.72;;
17253;SDS011;32542;52.832;13.816;2022-09-23T04:41:56;4.43;;;2.92;;
17253;SDS011;32542;52.832;13.816;2022-09-23T04:44:59;4.80;;;3.35;;
17253;SDS011;32542;52.832;13.816;2022-09-23T04:48:02;4.35;;;3.55;;
17253;SDS011;32542;52.832;13.816;2022-09-23T04:51:06;4.63;;;3.53;;
17253;SDS011;32542;52.832;13.816;2022-09-23T04:54:12;4.60;;;3.83;;
17253;SDS011;32542;52.832;13.816;2022-09-23T04:57:15;5.05;;;3.60;;
17253;SDS011;32542;52.832;13.816;2022-09-23T05:00:19;5.13;;;3.22;;
17253;SDS011;32542;52.832;13.816;2022-09-23T05:03:23;7.03;;;3.13;;
17253;SDS011;32542;52.832;13.816;2022-09-23T05:06:27;7.25;;;3.42;;
17253;SDS011;32542;52.832;13.816;2022-09-23T05:09:33;11.95;;;3.60;;
17253;SDS011;32542;52.832;13.816;2022-09-23T05:12:36;5.30;;;3.45;;
17253;SDS011;32542;52.832;13.816;2022-09-23T05:15:38;7.22;;;3.65;;
17253;SDS011;32542;52.832;13.816;2022-09-23T05:18:41;5.63;;;3.45;;
17253;SDS011;32542;52.832;13.816;2022-09-23T05:21:45;6.03;;;3.25;;
17253;SDS011;32542;52.832;13.816;2022-09-23T05:24:49;6.07;;;4.07;;
17253;SDS011;32542;52.832;13.816;2022-09-23T05:27:52;4.32;;;3.53;;
17253;SDS011;32542;52.832;13.816;2022-09-23T05:31:00;6.90;;;3.50;;
17253;SDS011;32542;52.832;13.816;2022-09-23T05:34:04;7.25;;;4.00;;
17253;SDS011;32542;52.832;13.816;2022-09-23T05:37:07;6.30;;;3.97;;
17253;SDS011;32542;52.832;13.816;2022-09-23T05:40:12;4.47;;;3.53;;
17253;SDS011;32542;52.832;13.816;2022-09-23T05:43:15;6.35;;;3.65;;
17253;SDS011;32542;52.832;13.816;2022-09-23T05:46:18;13.75;;;4.10;;
17253;SDS011;32542;52.832;13.816;2022-09-23T05:49:22;10.53;;;4.37;;
17253;SDS011;32542;52.832;13.816;2022-09-23T05:52:45;7.78;;;4.03;;
17253;SDS011;32542;52.832;13.816;2022-09-23T05:55:49;4.85;;;3.50;;
17253;SDS011;32542;52.832;13.816;2022-09-23T05:58:54;7.18;;;3.65;;
17253;SDS011;32542;52.832;13.816;2022-09-23T06:01:58;9.45;;;3.88;;
17253;SDS011;32542;52.832;13.816;2022-09-23T06:05:02;4.97;;;3.63;;
17253;SDS011;32542;52.832;13.816;2022-09-23T06:08:05;6.07;;;3.63;;
17253;SDS011;32542;52.832;13.816;2022-09-23T06:11:09;10.40;;;4.00;;
17253;SDS011;32542;52.832;13.816;2022-09-23T06:14:13;10.15;;;4.20;;
17253;SDS011;32542;52.832;13.816;2022-09-23T06:17:16;8.23;;;3.88;;
17253;SDS011;32542;52.832;13.816;2022-09-23T06:20:19;7.63;;;4.60;;
17253;SDS011;32542;52.832;13.816;2022-09-23T06:23:22;7.05;;;4.35;;
17253;SDS011;32542;52.832;13.816;2022-09-23T06:26:28;6.65;;;4.57;;
17253;SDS011;32542;52.832;13.816;2022-09-23T06:29:34;6.90;;;3.95;;
17253;SDS011;32542;52.832;13.816;2022-09-23T06:32:37;8.73;;;4.18;;
17253;SDS011;32542;52.832;13.816;2022-09-23T06:35:40;5.68;;;3.10;;
17253;SDS011;32542;52.832;13.816;2022-09-23T06:38:55;6.82;;;4.10;;
17253;SDS011;32542;52.832;13.816;2022-09-23T06:41:59;5.20;;;3.28;;
17253;SDS011;32542;52.832;13.816;2022-09-23T06:45:02;5.65;;;3.60;;
17253;SDS011;32542;52.832;13.816;2022-09-23T06:48:05;6.20;;;3.28;;
17253;SDS011;32542;52.832;13.816;2022-09-23T06:51:10;8.20;;;3.78;;
17253;SDS011;32542;52.832;13.816;2022-09-23T06:54:19;6.07;;;3.42;;
17253;SDS011;32542;52.832;13.816;2022-09-23T06:57:23;8.45;;;3.28;;
17253;SDS011;32542;52.832;13.816;2022-09-23T07:00:26;9.55;;;3.88;;
17253;SDS011;32542;52.832;13.816;2022-09-23T07:03:29;5.90;;;3.53;;
17253;SDS011;32542;52.832;13.816;2022-09-23T07:06:32;8.40;;;3.50;;
17253;SDS011;32542;52.832;13.816;2022-09-23T07:09:35;16.63;;;3.58;;
17253;SDS011;32542;52.832;13.816;2022-09-23T07:12:40;5.32;;;3.67;;
17253;SDS011;32542;52.832;13.816;2022-09-23T07:15:47;6.95;;;3.45;;
17253;SDS011;32542;52.832;13.816;2022-09-23T07:18:51;14.48;;;3.50;;
17253;SDS011;32542;52.832;13.816;2022-09-23T07:21:54;9.13;;;3.65;;
17253;SDS011;32542;52.832;13.816;2022-09-23T07:24:57;9.85;;;3.45;;
17253;SDS011;32542;52.832;13.816;2022-09-23T07:28:01;11.13;;;3.78;;
17253;SDS011;32542;52.832;13.816;2022-09-23T07:31:06;7.43;;;3.63;;
17253;SDS011;32542;52.832;13.816;2022-09-23T07:34:10;11.07;;;3.42;;
17253;SDS011;32542;52.832;13.816;2022-09-23T07:37:13;8.38;;;3.55;;
17253;SDS011;32542;52.832;13.816;2022-09-23T07:40:17;6.75;;;3.17;;
17253;SDS011;32542;52.832;13.816;2022-09-23T07:43:21;8.95;;;3.50;;
17253;SDS011;32542;52.832;13.816;2022-09-23T07:46:24;8.90;;;4.15;;
17253;SDS011;32542;52.832;13.816;2022-09-23T07:49:29;7.40;;;3.15;;
17253;SDS011;32542;52.832;13.816;2022-09-23T07:52:34;9.48;;;3.33;;
17253;SDS011;32542;52.832;13.816;2022-09-23T07:55:37;6.60;;;3.38;;
17253;SDS011;32542;52.832;13.816;2022-09-23T07:58:42;7.38;;;3.47;;
17253;SDS011;32542;52.832;13.816;2022-09-23T08:01:45;6.20;;;3.20;;
17253;SDS011;32542;52.832;13.816;2022-09-23T08:04:49;6.45;;;3.67;;
17253;SDS011;32542;52.832;13.816;2022-09-23T08:07:53;10.68;;;3.45;;
17253;SDS011;32542;52.832;13.816;2022-09-23T08:10:59;6.50;;;3.08;;
17253;SDS011;32542;52.832;13.816;2022-09-23T08:14:04;9.13;;;3.75;;
17253;SDS011;32542;52.832;13.816;2022-09-23T08:17:08;12.13;;;3.53;;
17253;SDS011;32542;52.832;13.816;2022-09-23T08:20:13;6.53;;;3.13;;
17253;SDS011;32542;52.832;13.816;2022-09-23T08:23:36;7.60;;;3.42;;
17253;SDS011;32542;52.832;13.816;2022-09-23T08:26:38;5.18;;;3.03;;
17253;SDS011;32542;52.832;13.816;2022-09-23T08:29:43;12.27;;;4.00;;
17253;SDS011;32542;52.832;13.816;2022-09-23T08:32:48;5.38;;;2.80;;
17253;SDS011;32542;52.832;13.816;2022-09-23T08:35:52;8.85;;;3.10;;
17253;SDS011;32542;52.832;13.816;2022-09-23T08:39:01;8.70;;;3.30;;
17253;SDS011;32542;52.832;13.816;2022-09-23T08:42:06;8.60;;;3.40;;
17253;SDS011;32542;52.832;13.816;2022-09-23T08:45:19;11.95;;;3.10;;
17253;SDS011;32542;52.832;13.816;2022-09-23T08:48:27;17.02;;;3.72;;
17253;SDS011;32542;52.832;13.816;2022-09-23T08:51:34;12.18;;;3.80;;
17253;SDS011;32542;52.832;13.816;2022-09-23T08:54:42;11.10;;;4.03;;
17253;SDS011;32542;52.832;13.816;2022-09-23T08:57:47;7.05;;;2.95;;
17253;SDS011;32542;52.832;13.816;2022-09-23T09:01:28;8.02;;;3.80;;
17253;SDS011;32542;52.832;13.816;2022-09-23T09:04:41;7.40;;;3.50;;
17253;SDS011;32542;52.832;13.816;2022-09-23T09:07:47;14.02;;;3.95;;
17253;SDS011;32542;52.832;13.816;2022-09-23T09:10:51;10.13;;;3.67;;
17253;SDS011;32542;52.832;13.816;2022-09-23T09:13:58;11.27;;;3.58;;
17253;SDS011;32542;52.832;13.816;2022-09-23T09:17:09;12.20;;;3.80;;
17253;SDS011;32542;52.832;13.816;2022-09-23T09:20:20;13.98;;;4.07;;
17253;SDS011;32542;52.832;13.816;2022-09-23T09:23:26;12.80;;;3.85;;
17253;SDS011;32542;52.832;13.816;2022-09-23T09:26:35;7.05;;;3.50;;
17253;SDS011;32542;52.832;13.816;2022-09-23T09:29:41;9.63;;;3.92;;
17253;SDS011;32542;52.832;13.816;2022-09-23T09:32:53;7.05;;;3.75;;
17253;SDS011;32542;52.832;13.816;2022-09-23T09:36:07;10.18;;;3.67;;
17253;SDS011;32542;52.832;13.816;2022-09-23T09:39:19;18.08;;;4.05;;
17253;SDS011;32542;52.832;13.816;2022-09-23T09:42:29;8.70;;;4.10;;
17253;SDS011;32542;52.832;13.816;2022-09-23T09:45:45;11.13;;;3.45;;
17253;SDS011;32542;52.832;13.816;2022-09-23T09:49:01;8.35;;;4.32;;
17253;SDS011;32542;52.832;13.816;2022-09-23T09:52:10;8.18;;;3.75;;
17253;SDS011;32542;52.832;13.816;2022-09-23T09:55:25;11.20;;;4.15;;
17253;SDS011;32542;52.832;13.816;2022-09-23T09:58:31;8.82;;;3.58;;
17253;SDS011;32542;52.832;13.816;2022-09-23T10:01:44;11.05;;;4.15;;
17253;SDS011;32542;52.832;13.816;2022-09-23T10:04:54;7.05;;;4.07;;
17253;SDS011;32542;52.832;13.816;2022-09-23T10:08:08;16.20;;;4.20;;
17253;SDS011;32542;52.832;13.816;2022-09-23T10:11:23;6.40;;;3.38;;
17253;SDS011;32542;52.832;13.816;2022-09-23T10:14:26;9.48;;;3.85;;
17253;SDS011;32542;52.832;13.816;2022-09-23T10:17:30;8.10;;;3.35;;
17253;SDS011;32542;52.832;13.816;2022-09-23T10:20:37;6.97;;;3.58;;
17253;SDS011;32542;52.832;13.816;2022-09-23T10:23:40;7.72;;;3.63;;
17253;SDS011;32542;52.832;13.816;2022-09-23T10:26:49;9.25;;;3.33;;
17253;SDS011;32542;52.832;13.816;2022-09-23T10:29:57;8.77;;;3.22;;
17253;SDS011;32542;52.832;13.816;2022-09-23T10:33:01;13.05;;;3.45;;
17253;SDS011;32542;52.832;13.816;2022-09-23T10:36:07;7.03;;;3.40;;
17253;SDS011;32542;52.832;13.816;2022-09-23T10:39:11;9.68;;;3.35;;
17253;SDS011;32542;52.832;13.816;2022-09-23T10:42:39;8.15;;;2.95;;
17253;SDS011;32542;52.832;13.816;2022-09-23T10:46:19;9.35;;;3.53;;
17253;SDS011;32542;52.832;13.816;2022-09-23T10:49:57;6.70;;;3.30;;
17253;SDS011;32542;52.832;13.816;2022-09-23T10:53:17;9.82;;;3.58;;
17253;SDS011;32542;52.832;13.816;2022-09-23T10:56:30;8.88;;;3.15;;
17253;SDS011;32542;52.832;13.816;2022-09-23T10:59:44;5.13;;;3.00;;
17253;SDS011;32542;52.832;13.816;2022-09-23T11:03:14;11.20;;;3.28;;
17253;SDS011;32542;52.832;13.816;2022-09-23T11:06:32;8.40;;;3.30;;
17253;SDS011;32542;52.832;13.816;2022-09-23T11:09:51;8.05;;;3.15;;
17253;SDS011;32542;52.832;13.816;2022-09-23T11:13:29;8.32;;;3.20;;
17253;SDS011;32542;52.832;13.816;2022-09-23T11:16:48;11.35;;;3.60;;
17253;SDS011;32542;52.832;13.816;2022-09-23T11:23:38;8.50;;;3.45;;
17253;SDS011;32542;52.832;13.816;2022-09-23T11:26:53;13.27;;;4.82;;
17253;SDS011;32542;52.832;13.816;2022-09-23T11:30:07;9.13;;;3.17;;
17253;SDS011;32542;52.832;13.816;2022-09-23T11:33:14;6.22;;;3.00;;
17253;SDS011;32542;52.832;13.816;2022-09-23T11:36:29;7.25;;;2.72;;
17253;SDS011;32542;52.832;13.816;2022-09-23T11:39:36;7.93;;;3.03;;
17253;SDS011;32542;52.832;13.816;2022-09-23T11:42:49;5.90;;;2.78;;
17253;SDS011;32542;52.832;13.816;2022-09-23T11:45:57;6.65;;;2.90;;
17253;SDS011;32542;52.832;13.816;2022-09-23T11:49:06;5.18;;;2.70;;
17253;SDS011;32542;52.832;13.816;2022-09-23T11:52:15;6.63;;;2.53;;
17253;SDS011;32542;52.832;13.816;2022-09-23T11:55:23;5.55;;;2.47;;
17253;SDS011;32542;52.832;13.816;2022-09-23T11:58:35;8.82;;;2.85;;
17253;SDS011;32542;52.832;13.816;2022-09-23T12:01:44;8.88;;;2.90;;
17253;SDS011;32542;52.832;13.816;2022-09-23T12:04:51;5.80;;;2.67;;
17253;SDS011;32542;52.832;13.816;2022-09-23T12:08:03;5.63;;;2.80;;
17253;SDS011;32542;52.832;13.816;2022-09-23T12:11:18;5.13;;;2.70;;
17253;SDS011;32542;52.832;13.816;2022-09-23T12:14:29;6.07;;;2.97;;
17253;SDS011;32542;52.832;13.816;2022-09-23T12:17:53;4.93;;;2.50;;
17253;SDS011;32542;52.832;13.816;2022-09-23T12:21:14;8.27;;;3.58;;
17253;SDS011;32542;52.832;13.816;2022-09-23T12:24:53;4.30;;;2.67;;
17253;SDS011;32542;52.832;13.816;2022-09-23T12:28:00;9.00;;;2.70;;
17253;SDS011;32542;52.832;13.816;2022-09-23T12:31:08;5.72;;;2.60;;
17253;SDS011;32542;52.832;13.816;2022-09-23T12:34:19;7.15;;;2.50;;
17253;SDS011;32542;52.832;13.816;2022-09-23T12:37:27;5.95;;;2.45;;
17253;SDS011;32542;52.832;13.816;2022-09-23T12:40:35;7.43;;;2.60;;
17253;SDS011;32542;52.832;13.816;2022-09-23T12:43:48;5.55;;;2.40;;
17253;SDS011;32542;52.832;13.816;2022-09-23T12:50:49;7.88;;;3.25;;
17253;SDS011;32542;52.832;13.816;2022-09-23T12:57:39;7.65;;;2.72;;
17253;SDS011;32542;52.832;13.816;2022-09-23T13:00:44;7.38;;;2.72;;
17253;SDS011;32542;52.832;13.816;2022-09-23T13:07:50;4.40;;;2.28;;
17253;SDS011;32542;52.832;13.816;2022-09-23T13:10:59;5.95;;;2.45;;
17253;SDS011;32542;52.832;13.816;2022-09-23T13:14:03;3.33;;;2.17;;
17253;SDS011;32542;52.832;13.816;2022-09-23T13:17:19;8.73;;;2.83;;
17253;SDS011;32542;52.832;13.816;2022-09-23T13:20:33;9.50;;;3.05;;
17253;SDS011;32542;52.832;13.816;2022-09-23T13:23:40;19.70;;;3.88;;
17253;SDS011;32542;52.832;13.816;2022-09-23T13:27:20;6.57;;;2.00;;
17253;SDS011;32542;52.832;13.816;2022-09-23T13:30:27;4.40;;;2.30;;
17253;SDS011;32542;52.832;13.816;2022-09-23T13:33:32;5.38;;;2.53;;
17253;SDS011;32542;52.832;13.816;2022-09-23T13:36:42;6.78;;;2.10;;
17253;SDS011;32542;52.832;13.816;2022-09-23T13:39:48;5.10;;;2.30;;
17253;SDS011;32542;52.832;13.816;2022-09-23T13:42:52;3.33;;;2.40;;
17253;SDS011;32542;52.832;13.816;2022-09-23T13:45:59;7.05;;;2.30;;
17253;SDS011;32542;52.832;13.816;2022-09-23T13:49:11;2.85;;;2.13;;
17253;SDS011;32542;52.832;13.816;2022-09-23T13:52:24;4.85;;;2.20;;
17253;SDS011;32542;52.832;13.816;2022-09-23T13:55:32;7.95;;;2.60;;
17253;SDS011;32542;52.832;13.816;2022-09-23T13:58:37;3.55;;;2.33;;
17253;SDS011;32542;52.832;13.816;2022-09-23T14:01:41;5.30;;;2.42;;
17253;SDS011;32542;52.832;13.816;2022-09-23T14:04:43;11.50;;;2.50;;
17253;SDS011;32542;52.832;13.816;2022-09-23T14:07:47;7.03;;;2.45;;
17253;SDS011;32542;52.832;13.816;2022-09-23T14:10:51;9.32;;;2.22;;
17253;SDS011;32542;52.832;13.816;2022-09-23T14:13:55;8.73;;;2.58;;
17253;SDS011;32542;52.832;13.816;2022-09-23T14:16:59;8.35;;;2.42;;
17253;SDS011;32542;52.832;13.816;2022-09-23T14:20:03;11.57;;;2.53;;
17253;SDS011;32542;52.832;13.816;2022-09-23T14:23:08;7.22;;;2.30;;
17253;SDS011;32542;52.832;13.816;2022-09-23T14:26:15;8.35;;;3.10;;
17253;SDS011;32542;52.832;13.816;2022-09-23T14:29:20;7.03;;;2.55;;
17253;SDS011;32542;52.832;13.816;2022-09-23T14:32:26;12.20;;;3.50;;
17253;SDS011;32542;52.832;13.816;2022-09-23T14:35:37;13.95;;;2.47;;
17253;SDS011;32542;52.832;13.816;2022-09-23T14:38:42;8.25;;;3.22;;
17253;SDS011;32542;52.832;13.816;2022-09-23T14:41:54;5.13;;;2.30;;
17253;SDS011;32542;52.832;13.816;2022-09-23T14:44:58;6.82;;;2.33;;
17253;SDS011;32542;52.832;13.816;2022-09-23T14:48:03;8.32;;;2.60;;
17253;SDS011;32542;52.832;13.816;2022-09-23T14:51:08;12.75;;;2.88;;
17253;SDS011;32542;52.832;13.816;2022-09-23T14:54:21;7.93;;;2.60;;
17253;SDS011;32542;52.832;13.816;2022-09-23T14:57:41;9.93;;;3.08;;
17253;SDS011;32542;52.832;13.816;2022-09-23T15:00:50;5.93;;;2.58;;
17253;SDS011;32542;52.832;13.816;2022-09-23T15:03:54;11.52;;;2.58;;
17253;SDS011;32542;52.832;13.816;2022-09-23T15:06:59;16.77;;;3.13;;
17253;SDS011;32542;52.832;13.816;2022-09-23T15:10:05;12.93;;;2.58;;
17253;SDS011;32542;52.832;13.816;2022-09-23T15:13:13;8.38;;;2.97;;
17253;SDS011;32542;52.832;13.816;2022-09-23T15:16:21;13.63;;;2.58;;
17253;SDS011;32542;52.832;13.816;2022-09-23T15:19:28;9.85;;;2.50;;
17253;SDS011;32542;52.832;13.816;2022-09-23T15:22:33;9.68;;;2.70;;
17253;SDS011;32542;52.832;13.816;2022-09-23T15:25:44;7.60;;;2.58;;
17253;SDS011;32542;52.832;13.816;2022-09-23T15:28:54;5.13;;;2.17;;
17253;SDS011;32542;52.832;13.816;2022-09-23T15:31:58;10.32;;;3.13;;
17253;SDS011;32542;52.832;13.816;2022-09-23T15:35:01;6.97;;;2.35;;
17253;SDS011;32542;52.832;13.816;2022-09-23T15:38:08;9.15;;;2.58;;
17253;SDS011;32542;52.832;13.816;2022-09-23T15:41:11;10.07;;;2.22;;
17253;SDS011;32542;52.832;13.816;2022-09-23T15:44:17;6.70;;;2.60;;
17253;SDS011;32542;52.832;13.816;2022-09-23T15:47:21;3.83;;;2.22;;
17253;SDS011;32542;52.832;13.816;2022-09-23T15:50:24;7.60;;;2.30;;
17253;SDS011;32542;52.832;13.816;2022-09-23T15:53:28;6.15;;;2.30;;
17253;SDS011;32542;52.832;13.816;2022-09-23T15:56:32;7.43;;;2.50;;
17253;SDS011;32542;52.832;13.816;2022-09-23T15:59:36;5.75;;;2.25;;
17253;SDS011;32542;52.832;13.816;2022-09-23T16:02:39;7.57;;;2.50;;
17253;SDS011;32542;52.832;13.816;2022-09-23T16:05:43;6.20;;;3.00;;
17253;SDS011;32542;52.832;13.816;2022-09-23T16:08:47;7.10;;;2.15;;
17253;SDS011;32542;52.832;13.816;2022-09-23T16:11:52;4.30;;;2.00;;
17253;SDS011;32542;52.832;13.816;2022-09-23T16:14:56;6.60;;;2.55;;
17253;SDS011;32542;52.832;13.816;2022-09-23T16:17:59;13.48;;;2.75;;
17253;SDS011;32542;52.832;13.816;2022-09-23T16:21:02;7.43;;;2.47;;
17253;SDS011;32542;52.832;13.816;2022-09-23T16:24:12;6.68;;;2.17;;
17253;SDS011;32542;52.832;13.816;2022-09-23T16:27:17;13.98;;;2.30;;
17253;SDS011;32542;52.832;13.816;2022-09-23T16:30:22;12.68;;;3.65;;
17253;SDS011;32542;52.832;13.816;2022-09-23T16:33:25;5.97;;;2.15;;
17253;SDS011;32542;52.832;13.816;2022-09-23T16:36:29;12.00;;;3.05;;
17253;SDS011;32542;52.832;13.816;2022-09-23T16:39:33;16.35;;;2.65;;
17253;SDS011;32542;52.832;13.816;2022-09-23T16:42:36;7.82;;;1.90;;
17253;SDS011;32542;52.832;13.816;2022-09-23T16:45:41;7.38;;;2.40;;
17253;SDS011;32542;52.832;13.816;2022-09-23T16:48:46;4.45;;;1.98;;
17253;SDS011;32542;52.832;13.816;2022-09-23T16:51:53;4.43;;;1.92;;
17253;SDS011;32542;52.832;13.816;2022-09-23T16:54:56;4.20;;;1.90;;
17253;SDS011;32542;52.832;13.816;2022-09-23T16:57:59;9.00;;;2.10;;
17253;SDS011;32542;52.832;13.816;2022-09-23T17:01:03;5.90;;;1.92;;
17253;SDS011;32542;52.832;13.816;2022-09-23T17:04:26;4.03;;;1.90;;
17253;SDS011;32542;52.832;13.816;2022-09-23T17:07:29;4.30;;;1.85;;
17253;SDS011;32542;52.832;13.816;2022-09-23T17:10:32;9.27;;;2.35;;
17253;SDS011;32542;52.832;13.816;2022-09-23T17:13:35;3.70;;;2.03;;
17253;SDS011;32542;52.832;13.816;2022-09-23T17:16:42;7.68;;;2.00;;
17253;SDS011;32542;52.832;13.816;2022-09-23T17:19:45;5.32;;;1.90;;
17253;SDS011;32542;52.832;13.816;2022-09-23T17:22:48;5.15;;;1.95;;
17253;SDS011;32542;52.832;13.816;2022-09-23T17:25:51;4.88;;;2.17;;
17253;SDS011;32542;52.832;13.816;2022-09-23T17:28:54;4.03;;;1.73;;
17253;SDS011;32542;52.832;13.816;2022-09-23T17:32:01;2.60;;;1.70;;
17253;SDS011;32542;52.832;13.816;2022-09-23T17:35:04;5.18;;;1.95;;
17253;SDS011;32542;52.832;13.816;2022-09-23T17:38:08;9.73;;;2.42;;
17253;SDS011;32542;52.832;13.816;2022-09-23T17:41:11;3.42;;;1.85;;
17253;SDS011;32542;52.832;13.816;2022-09-23T17:44:15;4.63;;;1.95;;
17253;SDS011;32542;52.832;13.816;2022-09-23T17:47:19;4.65;;;2.20;;
17253;SDS011;32542;52.832;13.816;2022-09-23T17:50:22;3.03;;;1.88;;
17253;SDS011;32542;52.832;13.816;2022-09-23T17:53:25;4.72;;;2.25;;
17253;SDS011;32542;52.832;13.816;2022-09-23T17:56:31;6.72;;;2.00;;
17253;SDS011;32542;52.832;13.816;2022-09-23T17:59:34;4.78;;;1.92;;
17253;SDS011;32542;52.832;13.816;2022-09-23T18:02:38;3.58;;;2.00;;
17253;SDS011;32542;52.832;13.816;2022-09-23T18:05:40;3.10;;;2.00;;
17253;SDS011;32542;52.832;13.816;2022-09-23T18:08:44;6.55;;;2.00;;
17253;SDS011;32542;52.832;13.816;2022-09-23T18:11:48;4.50;;;2.10;;
17253;SDS011;32542;52.832;13.816;2022-09-23T18:14:51;4.35;;;1.70;;
17253;SDS011;32542;52.832;13.816;2022-09-23T18:17:56;6.53;;;2.15;;
17253;SDS011;32542;52.832;13.816;2022-09-23T18:20:59;6.05;;;1.95;;
17253;SDS011;32542;52.832;13.816;2022-09-23T18:24:03;4.50;;;1.98;;
17253;SDS011;32542;52.832;13.816;2022-09-23T18:27:25;4.15;;;1.80;;
17253;SDS011;32542;52.832;13.816;2022-09-23T18:30:28;6.30;;;1.92;;
17253;SDS011;32542;52.832;13.816;2022-09-23T18:33:35;3.42;;;1.88;;
17253;SDS011;32542;52.832;13.816;2022-09-23T18:36:39;5.93;;;2.42;;
17253;SDS011;32542;52.832;13.816;2022-09-23T18:39:42;5.25;;;2.20;;
17253;SDS011;32542;52.832;13.816;2022-09-23T18:42:45;4.88;;;1.90;;
17253;SDS011;32542;52.832;13.816;2022-09-23T18:45:54;5.40;;;1.80;;